sensor_id;sensor_type;location;lat;lon;timestamp;P1;durP1;ratioP1;P2;durP2;ratioP2
79464;SDS011;68932;47.410;8.232;2023-06-10T00:01:11;4.80;;;4.00;;
79464;SDS011;68932;47.410;8.232;2023-06-10T00:03:39;6.30;;;4.50;;
79464;SDS011;68932;47.410;8.232;2023-06-10T00:06:08;7.70;;;4.80;;
79464;SDS011;68932;47.410;8.232;2023-06-10T00:08:36;8.10;;;4.70;;
79464;SDS011;68932;47.410;8.232;2023-06-10T00:11:04;6.80;;;5.00;;
79464;SDS011;68932;47.410;8.232;2023-06-10T00:13:33;6.40;;;5.30;;
79464;SDS011;68932;47.410;8.232;2023-06-10T00:16:01;6.30;;;5.10;;
79464;SDS011;68932;47.410;8.232;2023-06-10T00:18:30;6.90;;;4.90;;
79464;SDS011;68932;47.410;8.232;2023-06-10T00:20:58;6.20;;;5.10;;
79464;SDS011;68932;47.410;8.232;2023-06-10T00:23:26;7.60;;;5.20;;
79464;SDS011;68932;47.410;8.232;2023-06-10T00:25:55;5.60;;;4.70;;
79464;SDS011;68932;47.410;8.232;2023-06-10T00:28:24;6.60;;;4.90;;
79464;SDS011;68932;47.410;8.232;2023-06-10T00:30:53;6.80;;;5.40;;
79464;SDS011;68932;47.410;8.232;2023-06-10T00:33:21;6.00;;;4.60;;
79464;SDS011;68932;47.410;8.232;2023-06-10T00:35:49;7.30;;;4.70;;
79464;SDS011;68932;47.410;8.232;2023-06-10T00:38:18;5.40;;;4.50;;
79464;SDS011;68932;47.410;8.232;2023-06-10T00:40:46;5.90;;;4.10;;
79464;SDS011;68932;47.410;8.232;2023-06-10T00:43:15;5.00;;;4.50;;
79464;SDS011;68932;47.410;8.232;2023-06-10T00:45:43;5.20;;;4.70;;
79464;SDS011;68932;47.410;8.232;2023-06-10T00:48:11;5.90;;;4.70;;
79464;SDS011;68932;47.410;8.232;2023-06-10T00:50:40;5.30;;;4.50;;
79464;SDS011;68932;47.410;8.232;2023-06-10T00:53:08;4.60;;;4.00;;
79464;SDS011;68932;47.410;8.232;2023-06-10T00:55:37;6.70;;;4.60;;
79464;SDS011;68932;47.410;8.232;2023-06-10T00:58:07;6.60;;;4.60;;
79464;SDS011;68932;47.410;8.232;2023-06-10T01:00:35;5.00;;;4.30;;
79464;SDS011;68932;47.410;8.232;2023-06-10T01:03:04;7.50;;;4.80;;
79464;SDS011;68932;47.410;8.232;2023-06-10T01:05:33;7.80;;;5.20;;
79464;SDS011;68932;47.410;8.232;2023-06-10T01:08:03;6.80;;;4.90;;
79464;SDS011;68932;47.410;8.232;2023-06-10T01:10:38;6.40;;;5.10;;
79464;SDS011;68932;47.410;8.232;2023-06-10T01:15:42;6.10;;;4.20;;
79464;SDS011;68932;47.410;8.232;2023-06-10T01:18:11;6.70;;;5.20;;
79464;SDS011;68932;47.410;8.232;2023-06-10T01:20:39;6.00;;;4.90;;
79464;SDS011;68932;47.410;8.232;2023-06-10T01:23:09;4.50;;;4.10;;
79464;SDS011;68932;47.410;8.232;2023-06-10T01:25:38;5.80;;;4.40;;
79464;SDS011;68932;47.410;8.232;2023-06-10T01:28:12;4.50;;;3.90;;
79464;SDS011;68932;47.410;8.232;2023-06-10T01:30:45;5.00;;;4.30;;
79464;SDS011;68932;47.410;8.232;2023-06-10T01:33:19;5.70;;;4.20;;
79464;SDS011;68932;47.410;8.232;2023-06-10T01:35:53;5.00;;;4.50;;
79464;SDS011;68932;47.410;8.232;2023-06-10T01:38:22;6.10;;;4.40;;
79464;SDS011;68932;47.410;8.232;2023-06-10T01:40:53;6.60;;;4.10;;
79464;SDS011;68932;47.410;8.232;2023-06-10T01:43:24;4.90;;;4.20;;
79464;SDS011;68932;47.410;8.232;2023-06-10T01:45:52;5.70;;;4.70;;
79464;SDS011;68932;47.410;8.232;2023-06-10T01:48:20;6.70;;;5.20;;
79464;SDS011;68932;47.410;8.232;2023-06-10T01:50:48;6.20;;;4.80;;
79464;SDS011;68932;47.410;8.232;2023-06-10T01:53:17;7.10;;;5.30;;
79464;SDS011;68932;47.410;8.232;2023-06-10T01:55:46;7.70;;;5.30;;
79464;SDS011;68932;47.410;8.232;2023-06-10T01:58:14;6.70;;;5.70;;
79464;SDS011;68932;47.410;8.232;2023-06-10T02:00:43;9.60;;;5.30;;
79464;SDS011;68932;47.410;8.232;2023-06-10T02:03:11;7.60;;;5.20;;
79464;SDS011;68932;47.410;8.232;2023-06-10T02:05:40;5.90;;;5.20;;
79464;SDS011;68932;47.410;8.232;2023-06-10T02:08:08;7.80;;;5.10;;
79464;SDS011;68932;47.410;8.232;2023-06-10T02:10:37;6.10;;;5.40;;
79464;SDS011;68932;47.410;8.232;2023-06-10T02:13:05;6.50;;;5.10;;
79464;SDS011;68932;47.410;8.232;2023-06-10T02:15:33;5.70;;;5.00;;
79464;SDS011;68932;47.410;8.232;2023-06-10T02:18:01;6.10;;;5.00;;
79464;SDS011;68932;47.410;8.232;2023-06-10T02:20:30;7.60;;;4.90;;
79464;SDS011;68932;47.410;8.232;2023-06-10T02:22:59;6.90;;;4.60;;
79464;SDS011;68932;47.410;8.232;2023-06-10T02:25:27;6.20;;;4.90;;
79464;SDS011;68932;47.410;8.232;2023-06-10T02:27:55;4.90;;;4.00;;
79464;SDS011;68932;47.410;8.232;2023-06-10T02:30:24;8.60;;;4.90;;
79464;SDS011;68932;47.410;8.232;2023-06-10T02:32:52;6.40;;;4.40;;
79464;SDS011;68932;47.410;8.232;2023-06-10T02:35:20;4.60;;;4.10;;
79464;SDS011;68932;47.410;8.232;2023-06-10T02:37:48;5.50;;;4.60;;
79464;SDS011;68932;47.410;8.232;2023-06-10T02:40:17;5.50;;;4.50;;
79464;SDS011;68932;47.410;8.232;2023-06-10T02:42:45;5.10;;;4.00;;
79464;SDS011;68932;47.410;8.232;2023-06-10T02:45:13;5.90;;;4.70;;
79464;SDS011;68932;47.410;8.232;2023-06-10T02:47:42;5.90;;;4.00;;
79464;SDS011;68932;47.410;8.232;2023-06-10T02:50:10;6.20;;;3.90;;
79464;SDS011;68932;47.410;8.232;2023-06-10T02:52:39;6.20;;;4.30;;
79464;SDS011;68932;47.410;8.232;2023-06-10T02:55:07;5.50;;;4.60;;
79464;SDS011;68932;47.410;8.232;2023-06-10T02:57:36;5.60;;;4.40;;
79464;SDS011;68932;47.410;8.232;2023-06-10T03:00:05;5.50;;;4.90;;
79464;SDS011;68932;47.410;8.232;2023-06-10T03:02:35;4.80;;;4.10;;
79464;SDS011;68932;47.410;8.232;2023-06-10T03:05:04;6.40;;;3.90;;
79464;SDS011;68932;47.410;8.232;2023-06-10T03:07:33;6.10;;;4.30;;
79464;SDS011;68932;47.410;8.232;2023-06-10T03:10:01;4.30;;;3.80;;
79464;SDS011;68932;47.410;8.232;2023-06-10T03:12:30;7.30;;;4.20;;
79464;SDS011;68932;47.410;8.232;2023-06-10T03:14:58;6.20;;;4.70;;
79464;SDS011;68932;47.410;8.232;2023-06-10T03:17:26;5.60;;;4.10;;
79464;SDS011;68932;47.410;8.232;2023-06-10T03:19:54;5.80;;;4.70;;
79464;SDS011;68932;47.410;8.232;2023-06-10T03:22:23;6.20;;;4.30;;
79464;SDS011;68932;47.410;8.232;2023-06-10T03:24:52;6.50;;;5.20;;
79464;SDS011;68932;47.410;8.232;2023-06-10T03:27:20;6.00;;;4.90;;
79464;SDS011;68932;47.410;8.232;2023-06-10T03:29:49;6.90;;;5.30;;
79464;SDS011;68932;47.410;8.232;2023-06-10T03:32:17;6.60;;;5.50;;
79464;SDS011;68932;47.410;8.232;2023-06-10T03:34:45;5.80;;;5.20;;
79464;SDS011;68932;47.410;8.232;2023-06-10T03:37:13;7.40;;;5.40;;
79464;SDS011;68932;47.410;8.232;2023-06-10T03:39:42;11.00;;;5.20;;
79464;SDS011;68932;47.410;8.232;2023-06-10T03:42:10;6.70;;;5.60;;
79464;SDS011;68932;47.410;8.232;2023-06-10T03:44:38;7.30;;;5.80;;
79464;SDS011;68932;47.410;8.232;2023-06-10T03:47:07;8.30;;;6.00;;
79464;SDS011;68932;47.410;8.232;2023-06-10T03:49:35;7.20;;;5.80;;
79464;SDS011;68932;47.410;8.232;2023-06-10T03:52:04;8.60;;;5.90;;
79464;SDS011;68932;47.410;8.232;2023-06-10T03:54:33;8.80;;;7.00;;
79464;SDS011;68932;47.410;8.232;2023-06-10T03:57:01;8.00;;;6.90;;
79464;SDS011;68932;47.410;8.232;2023-06-10T03:59:29;9.80;;;7.10;;
79464;SDS011;68932;47.410;8.232;2023-06-10T04:01:58;8.60;;;6.60;;
79464;SDS011;68932;47.410;8.232;2023-06-10T04:04:26;8.60;;;7.70;;
79464;SDS011;68932;47.410;8.232;2023-06-10T04:06:54;10.90;;;7.70;;
79464;SDS011;68932;47.410;8.232;2023-06-10T04:09:22;9.40;;;6.80;;
79464;SDS011;68932;47.410;8.232;2023-06-10T04:11:51;9.90;;;7.30;;
79464;SDS011;68932;47.410;8.232;2023-06-10T04:14:19;9.10;;;7.60;;
79464;SDS011;68932;47.410;8.232;2023-06-10T04:16:47;8.30;;;7.30;;
79464;SDS011;68932;47.410;8.232;2023-06-10T04:19:15;8.60;;;7.70;;
79464;SDS011;68932;47.410;8.232;2023-06-10T04:21:44;9.30;;;7.40;;
79464;SDS011;68932;47.410;8.232;2023-06-10T04:24:12;8.90;;;8.00;;
79464;SDS011;68932;47.410;8.232;2023-06-10T04:26:40;9.20;;;7.50;;
79464;SDS011;68932;47.410;8.232;2023-06-10T04:29:08;9.40;;;7.80;;
79464;SDS011;68932;47.410;8.232;2023-06-10T04:31:37;8.40;;;7.40;;
79464;SDS011;68932;47.410;8.232;2023-06-10T04:34:05;10.60;;;7.60;;
79464;SDS011;68932;47.410;8.232;2023-06-10T04:36:33;10.90;;;7.70;;
79464;SDS011;68932;47.410;8.232;2023-06-10T04:39:01;9.00;;;8.00;;
79464;SDS011;68932;47.410;8.232;2023-06-10T04:41:30;8.90;;;7.90;;
79464;SDS011;68932;47.410;8.232;2023-06-10T04:43:58;9.00;;;8.00;;
79464;SDS011;68932;47.410;8.232;2023-06-10T04:46:27;10.50;;;7.90;;
79464;SDS011;68932;47.410;8.232;2023-06-10T04:48:55;9.60;;;7.70;;
79464;SDS011;68932;47.410;8.232;2023-06-10T04:51:23;10.10;;;8.10;;
79464;SDS011;68932;47.410;8.232;2023-06-10T04:53:51;8.10;;;7.10;;
79464;SDS011;68932;47.410;8.232;2023-06-10T04:56:20;9.70;;;7.80;;
79464;SDS011;68932;47.410;8.232;2023-06-10T04:58:48;9.40;;;7.70;;
79464;SDS011;68932;47.410;8.232;2023-06-10T05:01:16;10.30;;;7.80;;
79464;SDS011;68932;47.410;8.232;2023-06-10T05:03:44;10.30;;;8.80;;
79464;SDS011;68932;47.410;8.232;2023-06-10T05:06:13;10.80;;;7.80;;
79464;SDS011;68932;47.410;8.232;2023-06-10T05:08:41;8.90;;;7.70;;
79464;SDS011;68932;47.410;8.232;2023-06-10T05:11:10;9.90;;;7.50;;
79464;SDS011;68932;47.410;8.232;2023-06-10T05:13:38;10.20;;;8.10;;
79464;SDS011;68932;47.410;8.232;2023-06-10T05:16:08;9.10;;;7.50;;
79464;SDS011;68932;47.410;8.232;2023-06-10T05:18:36;10.80;;;8.60;;
79464;SDS011;68932;47.410;8.232;2023-06-10T05:21:04;10.30;;;8.90;;
79464;SDS011;68932;47.410;8.232;2023-06-10T05:23:33;12.40;;;7.50;;
79464;SDS011;68932;47.410;8.232;2023-06-10T05:26:01;8.90;;;7.10;;
79464;SDS011;68932;47.410;8.232;2023-06-10T05:28:29;10.20;;;8.00;;
79464;SDS011;68932;47.410;8.232;2023-06-10T05:30:58;10.00;;;7.60;;
79464;SDS011;68932;47.410;8.232;2023-06-10T05:33:26;10.00;;;7.70;;
79464;SDS011;68932;47.410;8.232;2023-06-10T05:35:54;9.60;;;7.50;;
79464;SDS011;68932;47.410;8.232;2023-06-10T05:38:23;9.50;;;8.30;;
79464;SDS011;68932;47.410;8.232;2023-06-10T05:40:51;10.90;;;7.50;;
79464;SDS011;68932;47.410;8.232;2023-06-10T05:43:19;9.60;;;7.80;;
79464;SDS011;68932;47.410;8.232;2023-06-10T05:45:48;9.10;;;7.40;;
79464;SDS011;68932;47.410;8.232;2023-06-10T05:48:16;8.90;;;7.60;;
79464;SDS011;68932;47.410;8.232;2023-06-10T05:50:44;8.80;;;7.30;;
79464;SDS011;68932;47.410;8.232;2023-06-10T05:53:12;8.40;;;6.80;;
79464;SDS011;68932;47.410;8.232;2023-06-10T05:55:40;9.90;;;6.40;;
79464;SDS011;68932;47.410;8.232;2023-06-10T05:58:10;8.60;;;6.00;;
79464;SDS011;68932;47.410;8.232;2023-06-10T06:00:39;8.00;;;6.40;;
79464;SDS011;68932;47.410;8.232;2023-06-10T06:03:08;5.60;;;4.70;;
79464;SDS011;68932;47.410;8.232;2023-06-10T06:05:37;6.90;;;4.70;;
79464;SDS011;68932;47.410;8.232;2023-06-10T06:08:05;9.00;;;4.70;;
79464;SDS011;68932;47.410;8.232;2023-06-10T06:10:33;6.80;;;5.30;;
79464;SDS011;68932;47.410;8.232;2023-06-10T06:13:02;5.60;;;4.40;;
79464;SDS011;68932;47.410;8.232;2023-06-10T06:15:30;7.10;;;4.90;;
79464;SDS011;68932;47.410;8.232;2023-06-10T06:17:58;7.50;;;4.60;;
79464;SDS011;68932;47.410;8.232;2023-06-10T06:20:27;5.70;;;4.20;;
79464;SDS011;68932;47.410;8.232;2023-06-10T06:22:55;5.70;;;4.30;;
79464;SDS011;68932;47.410;8.232;2023-06-10T06:25:23;5.10;;;4.00;;
79464;SDS011;68932;47.410;8.232;2023-06-10T06:27:52;4.90;;;4.30;;
79464;SDS011;68932;47.410;8.232;2023-06-10T06:30:20;6.00;;;4.00;;
79464;SDS011;68932;47.410;8.232;2023-06-10T06:32:49;6.10;;;4.60;;
79464;SDS011;68932;47.410;8.232;2023-06-10T06:35:17;5.90;;;4.40;;
79464;SDS011;68932;47.410;8.232;2023-06-10T06:37:45;6.30;;;4.00;;
79464;SDS011;68932;47.410;8.232;2023-06-10T06:40:14;5.20;;;4.20;;
79464;SDS011;68932;47.410;8.232;2023-06-10T06:42:42;5.50;;;4.60;;
79464;SDS011;68932;47.410;8.232;2023-06-10T06:45:11;6.00;;;4.40;;
79464;SDS011;68932;47.410;8.232;2023-06-10T06:47:39;5.70;;;4.70;;
79464;SDS011;68932;47.410;8.232;2023-06-10T06:50:08;5.20;;;4.70;;
79464;SDS011;68932;47.410;8.232;2023-06-10T06:52:37;6.70;;;5.30;;
79464;SDS011;68932;47.410;8.232;2023-06-10T06:55:06;6.00;;;5.10;;
79464;SDS011;68932;47.410;8.232;2023-06-10T06:57:35;6.90;;;5.70;;
79464;SDS011;68932;47.410;8.232;2023-06-10T07:00:04;6.00;;;5.10;;
79464;SDS011;68932;47.410;8.232;2023-06-10T07:02:33;6.40;;;5.80;;
79464;SDS011;68932;47.410;8.232;2023-06-10T07:05:02;5.20;;;4.50;;
79464;SDS011;68932;47.410;8.232;2023-06-10T07:07:31;7.10;;;5.10;;
79464;SDS011;68932;47.410;8.232;2023-06-10T07:09:59;5.90;;;5.20;;
79464;SDS011;68932;47.410;8.232;2023-06-10T07:12:28;5.80;;;5.20;;
79464;SDS011;68932;47.410;8.232;2023-06-10T07:14:56;5.80;;;4.70;;
79464;SDS011;68932;47.410;8.232;2023-06-10T07:17:24;6.20;;;5.40;;
79464;SDS011;68932;47.410;8.232;2023-06-10T07:19:52;6.00;;;5.30;;
79464;SDS011;68932;47.410;8.232;2023-06-10T07:22:21;6.00;;;4.60;;
79464;SDS011;68932;47.410;8.232;2023-06-10T07:24:49;7.50;;;5.30;;
79464;SDS011;68932;47.410;8.232;2023-06-10T07:27:17;6.20;;;5.40;;
79464;SDS011;68932;47.410;8.232;2023-06-10T07:29:46;5.00;;;4.40;;
79464;SDS011;68932;47.410;8.232;2023-06-10T07:32:14;5.60;;;4.70;;
79464;SDS011;68932;47.410;8.232;2023-06-10T07:34:42;8.30;;;5.70;;
79464;SDS011;68932;47.410;8.232;2023-06-10T07:37:11;7.30;;;5.40;;
79464;SDS011;68932;47.410;8.232;2023-06-10T07:39:39;5.90;;;5.10;;
79464;SDS011;68932;47.410;8.232;2023-06-10T07:42:08;5.50;;;4.90;;
79464;SDS011;68932;47.410;8.232;2023-06-10T07:44:36;5.90;;;5.30;;
79464;SDS011;68932;47.410;8.232;2023-06-10T07:47:05;6.40;;;5.60;;
79464;SDS011;68932;47.410;8.232;2023-06-10T07:49:34;7.20;;;5.80;;
79464;SDS011;68932;47.410;8.232;2023-06-10T07:52:02;6.90;;;5.10;;
79464;SDS011;68932;47.410;8.232;2023-06-10T07:54:31;6.10;;;5.50;;
79464;SDS011;68932;47.410;8.232;2023-06-10T07:57:00;6.10;;;5.30;;
79464;SDS011;68932;47.410;8.232;2023-06-10T07:59:28;7.20;;;6.00;;
79464;SDS011;68932;47.410;8.232;2023-06-10T08:01:56;7.00;;;6.40;;
79464;SDS011;68932;47.410;8.232;2023-06-10T08:04:24;7.80;;;6.20;;
79464;SDS011;68932;47.410;8.232;2023-06-10T08:06:53;6.70;;;6.10;;
79464;SDS011;68932;47.410;8.232;2023-06-10T08:09:21;7.60;;;5.80;;
79464;SDS011;68932;47.410;8.232;2023-06-10T08:11:49;7.10;;;5.90;;
79464;SDS011;68932;47.410;8.232;2023-06-10T08:14:17;5.90;;;5.40;;
79464;SDS011;68932;47.410;8.232;2023-06-10T08:16:46;6.70;;;5.60;;
79464;SDS011;68932;47.410;8.232;2023-06-10T08:19:14;6.10;;;5.50;;
79464;SDS011;68932;47.410;8.232;2023-06-10T08:21:42;6.50;;;5.90;;
79464;SDS011;68932;47.410;8.232;2023-06-10T08:24:10;6.60;;;5.70;;
79464;SDS011;68932;47.410;8.232;2023-06-10T08:26:39;6.90;;;5.80;;
79464;SDS011;68932;47.410;8.232;2023-06-10T08:29:07;7.10;;;6.20;;
79464;SDS011;68932;47.410;8.232;2023-06-10T08:31:35;6.80;;;6.00;;
79464;SDS011;68932;47.410;8.232;2023-06-10T08:34:04;6.30;;;5.40;;
79464;SDS011;68932;47.410;8.232;2023-06-10T08:36:32;6.30;;;5.60;;
79464;SDS011;68932;47.410;8.232;2023-06-10T08:39:00;6.30;;;5.60;;
79464;SDS011;68932;47.410;8.232;2023-06-10T08:41:29;7.00;;;6.10;;
79464;SDS011;68932;47.410;8.232;2023-06-10T08:44:02;7.90;;;6.50;;
79464;SDS011;68932;47.410;8.232;2023-06-10T08:46:36;6.60;;;5.60;;
79464;SDS011;68932;47.410;8.232;2023-06-10T08:49:08;6.70;;;5.20;;
79464;SDS011;68932;47.410;8.232;2023-06-10T08:51:42;6.60;;;6.00;;
79464;SDS011;68932;47.410;8.232;2023-06-10T08:54:13;8.10;;;6.80;;
79464;SDS011;68932;47.410;8.232;2023-06-10T08:56:44;6.10;;;5.30;;
79464;SDS011;68932;47.410;8.232;2023-06-10T08:59:15;8.10;;;5.80;;
79464;SDS011;68932;47.410;8.232;2023-06-10T09:01:44;6.10;;;5.50;;
79464;SDS011;68932;47.410;8.232;2023-06-10T09:04:13;6.70;;;6.00;;
79464;SDS011;68932;47.410;8.232;2023-06-10T09:06:41;8.00;;;5.50;;
79464;SDS011;68932;47.410;8.232;2023-06-10T09:09:11;7.30;;;6.20;;
79464;SDS011;68932;47.410;8.232;2023-06-10T09:11:41;7.00;;;6.30;;
79464;SDS011;68932;47.410;8.232;2023-06-10T09:14:10;6.60;;;5.90;;
79464;SDS011;68932;47.410;8.232;2023-06-10T09:16:38;8.00;;;6.10;;
79464;SDS011;68932;47.410;8.232;2023-06-10T09:19:07;6.40;;;5.70;;
79464;SDS011;68932;47.410;8.232;2023-06-10T09:21:35;5.90;;;5.00;;
79464;SDS011;68932;47.410;8.232;2023-06-10T09:24:04;6.70;;;6.00;;
79464;SDS011;68932;47.410;8.232;2023-06-10T09:26:33;6.70;;;5.90;;
79464;SDS011;68932;47.410;8.232;2023-06-10T09:29:04;6.20;;;5.60;;
79464;SDS011;68932;47.410;8.232;2023-06-10T09:31:33;6.20;;;5.70;;
79464;SDS011;68932;47.410;8.232;2023-06-10T09:34:07;6.40;;;5.70;;
79464;SDS011;68932;47.410;8.232;2023-06-10T09:36:37;6.30;;;5.60;;
79464;SDS011;68932;47.410;8.232;2023-06-10T09:39:13;6.20;;;5.60;;
79464;SDS011;68932;47.410;8.232;2023-06-10T09:41:42;5.90;;;4.80;;
79464;SDS011;68932;47.410;8.232;2023-06-10T09:44:13;6.20;;;5.00;;
79464;SDS011;68932;47.410;8.232;2023-06-10T09:46:42;5.60;;;5.00;;
79464;SDS011;68932;47.410;8.232;2023-06-10T09:49:13;6.40;;;5.50;;
79464;SDS011;68932;47.410;8.232;2023-06-10T09:51:50;7.40;;;5.50;;
79464;SDS011;68932;47.410;8.232;2023-06-10T09:54:19;7.00;;;5.90;;
79464;SDS011;68932;47.410;8.232;2023-06-10T09:56:48;7.40;;;5.90;;
79464;SDS011;68932;47.410;8.232;2023-06-10T09:59:19;6.70;;;5.90;;
79464;SDS011;68932;47.410;8.232;2023-06-10T10:01:56;7.30;;;6.00;;
79464;SDS011;68932;47.410;8.232;2023-06-10T10:04:25;7.80;;;6.50;;
79464;SDS011;68932;47.410;8.232;2023-06-10T10:06:53;8.40;;;7.50;;
79464;SDS011;68932;47.410;8.232;2023-06-10T10:09:22;10.20;;;6.90;;
79464;SDS011;68932;47.410;8.232;2023-06-10T10:11:50;6.10;;;5.50;;
79464;SDS011;68932;47.410;8.232;2023-06-10T10:14:21;7.80;;;6.60;;
79464;SDS011;68932;47.410;8.232;2023-06-10T10:16:50;7.80;;;6.00;;
79464;SDS011;68932;47.410;8.232;2023-06-10T10:19:23;8.10;;;7.20;;
79464;SDS011;68932;47.410;8.232;2023-06-10T10:21:57;8.30;;;6.50;;
79464;SDS011;68932;47.410;8.232;2023-06-10T10:24:32;7.20;;;5.90;;
79464;SDS011;68932;47.410;8.232;2023-06-10T10:27:04;7.20;;;6.50;;
79464;SDS011;68932;47.410;8.232;2023-06-10T10:29:39;7.40;;;6.50;;
79464;SDS011;68932;47.410;8.232;2023-06-10T10:32:12;6.70;;;6.10;;
79464;SDS011;68932;47.410;8.232;2023-06-10T10:34:43;6.50;;;5.80;;
79464;SDS011;68932;47.410;8.232;2023-06-10T10:37:19;6.80;;;6.10;;
79464;SDS011;68932;47.410;8.232;2023-06-10T10:39:48;6.20;;;5.60;;
79464;SDS011;68932;47.410;8.232;2023-06-10T10:42:17;6.90;;;6.20;;
79464;SDS011;68932;47.410;8.232;2023-06-10T10:44:46;7.10;;;6.40;;
79464;SDS011;68932;47.410;8.232;2023-06-10T10:47:16;7.40;;;6.70;;
79464;SDS011;68932;47.410;8.232;2023-06-10T10:49:48;7.60;;;6.40;;
79464;SDS011;68932;47.410;8.232;2023-06-10T10:52:18;6.40;;;5.80;;
79464;SDS011;68932;47.410;8.232;2023-06-10T10:54:46;7.00;;;5.70;;
79464;SDS011;68932;47.410;8.232;2023-06-10T10:57:16;5.80;;;4.90;;
79464;SDS011;68932;47.410;8.232;2023-06-10T10:59:46;6.60;;;5.90;;
79464;SDS011;68932;47.410;8.232;2023-06-10T11:02:19;7.20;;;6.50;;
79464;SDS011;68932;47.410;8.232;2023-06-10T11:05:00;6.70;;;6.10;;
79464;SDS011;68932;47.410;8.232;2023-06-10T11:07:30;6.50;;;5.80;;
79464;SDS011;68932;47.410;8.232;2023-06-10T11:10:00;6.40;;;5.50;;
79464;SDS011;68932;47.410;8.232;2023-06-10T11:15:24;5.80;;;4.50;;
79464;SDS011;68932;47.410;8.232;2023-06-10T11:18:13;5.50;;;4.90;;
79464;SDS011;68932;47.410;8.232;2023-06-10T11:20:55;5.80;;;5.20;;
79464;SDS011;68932;47.410;8.232;2023-06-10T11:23:32;5.20;;;4.40;;
79464;SDS011;68932;47.410;8.232;2023-06-10T11:26:17;5.00;;;4.60;;
79464;SDS011;68932;47.410;8.232;2023-06-10T11:31:33;4.80;;;4.40;;
79464;SDS011;68932;47.410;8.232;2023-06-10T11:34:05;6.50;;;4.80;;
79464;SDS011;68932;47.410;8.232;2023-06-10T11:36:34;5.60;;;4.50;;
79464;SDS011;68932;47.410;8.232;2023-06-10T11:39:05;6.10;;;4.80;;
79464;SDS011;68932;47.410;8.232;2023-06-10T11:41:34;5.30;;;4.10;;
79464;SDS011;68932;47.410;8.232;2023-06-10T11:44:07;5.10;;;4.60;;
79464;SDS011;68932;47.410;8.232;2023-06-10T11:46:36;5.60;;;4.50;;
79464;SDS011;68932;47.410;8.232;2023-06-10T11:49:06;4.20;;;3.80;;
79464;SDS011;68932;47.410;8.232;2023-06-10T11:51:35;4.70;;;4.20;;
79464;SDS011;68932;47.410;8.232;2023-06-10T11:54:04;5.10;;;4.20;;
79464;SDS011;68932;47.410;8.232;2023-06-10T11:56:34;5.20;;;4.70;;
79464;SDS011;68932;47.410;8.232;2023-06-10T11:59:03;5.50;;;4.90;;
79464;SDS011;68932;47.410;8.232;2023-06-10T12:01:32;5.90;;;5.10;;
79464;SDS011;68932;47.410;8.232;2023-06-10T12:04:02;7.10;;;4.70;;
79464;SDS011;68932;47.410;8.232;2023-06-10T12:06:42;4.20;;;3.80;;
79464;SDS011;68932;47.410;8.232;2023-06-10T12:09:15;5.40;;;4.80;;
79464;SDS011;68932;47.410;8.232;2023-06-10T12:11:49;4.50;;;4.10;;
79464;SDS011;68932;47.410;8.232;2023-06-10T12:17:21;4.80;;;3.90;;
79464;SDS011;68932;47.410;8.232;2023-06-10T12:19:50;5.10;;;4.40;;
79464;SDS011;68932;47.410;8.232;2023-06-10T12:22:19;5.20;;;4.00;;
79464;SDS011;68932;47.410;8.232;2023-06-10T12:24:56;5.80;;;4.80;;
79464;SDS011;68932;47.410;8.232;2023-06-10T12:27:26;4.80;;;4.30;;
79464;SDS011;68932;47.410;8.232;2023-06-10T12:29:54;5.40;;;4.00;;
79464;SDS011;68932;47.410;8.232;2023-06-10T12:32:34;3.90;;;3.50;;
79464;SDS011;68932;47.410;8.232;2023-06-10T12:35:04;4.30;;;3.90;;
79464;SDS011;68932;47.410;8.232;2023-06-10T12:37:33;4.20;;;3.60;;
79464;SDS011;68932;47.410;8.232;2023-06-10T12:40:02;4.20;;;3.80;;
79464;SDS011;68932;47.410;8.232;2023-06-10T12:42:32;4.30;;;3.80;;
79464;SDS011;68932;47.410;8.232;2023-06-10T12:45:01;4.80;;;4.20;;
79464;SDS011;68932;47.410;8.232;2023-06-10T12:47:31;5.80;;;4.80;;
79464;SDS011;68932;47.410;8.232;2023-06-10T12:50:01;4.30;;;3.90;;
79464;SDS011;68932;47.410;8.232;2023-06-10T12:52:30;5.20;;;4.70;;
79464;SDS011;68932;47.410;8.232;2023-06-10T12:54:59;6.20;;;4.70;;
79464;SDS011;68932;47.410;8.232;2023-06-10T12:57:27;4.80;;;4.20;;
79464;SDS011;68932;47.410;8.232;2023-06-10T12:59:55;4.40;;;3.90;;
79464;SDS011;68932;47.410;8.232;2023-06-10T13:02:24;6.80;;;4.60;;
79464;SDS011;68932;47.410;8.232;2023-06-10T13:04:52;4.80;;;4.30;;
79464;SDS011;68932;47.410;8.232;2023-06-10T13:07:20;4.20;;;3.80;;
79464;SDS011;68932;47.410;8.232;2023-06-10T13:09:48;4.00;;;3.60;;
79464;SDS011;68932;47.410;8.232;2023-06-10T13:12:16;3.30;;;3.00;;
79464;SDS011;68932;47.410;8.232;2023-06-10T13:14:45;3.90;;;3.50;;
79464;SDS011;68932;47.410;8.232;2023-06-10T13:17:13;4.50;;;4.10;;
79464;SDS011;68932;47.410;8.232;2023-06-10T13:19:41;4.70;;;4.10;;
79464;SDS011;68932;47.410;8.232;2023-06-10T13:22:10;4.50;;;3.60;;
79464;SDS011;68932;47.410;8.232;2023-06-10T13:24:40;4.30;;;3.90;;
79464;SDS011;68932;47.410;8.232;2023-06-10T13:27:08;5.60;;;3.90;;
79464;SDS011;68932;47.410;8.232;2023-06-10T13:29:36;4.80;;;4.10;;
79464;SDS011;68932;47.410;8.232;2023-06-10T13:32:05;4.80;;;4.40;;
79464;SDS011;68932;47.410;8.232;2023-06-10T13:34:35;4.70;;;4.30;;
79464;SDS011;68932;47.410;8.232;2023-06-10T13:37:03;6.20;;;4.50;;
79464;SDS011;68932;47.410;8.232;2023-06-10T13:39:32;4.40;;;4.00;;
79464;SDS011;68932;47.410;8.232;2023-06-10T13:42:00;4.90;;;3.70;;
79464;SDS011;68932;47.410;8.232;2023-06-10T13:44:29;4.30;;;3.90;;
79464;SDS011;68932;47.410;8.232;2023-06-10T13:46:57;4.20;;;3.70;;
79464;SDS011;68932;47.410;8.232;2023-06-10T13:49:25;4.10;;;3.70;;
79464;SDS011;68932;47.410;8.232;2023-06-10T13:51:53;4.80;;;3.70;;
79464;SDS011;68932;47.410;8.232;2023-06-10T13:54:22;4.40;;;3.90;;
79464;SDS011;68932;47.410;8.232;2023-06-10T13:56:50;4.20;;;3.80;;
79464;SDS011;68932;47.410;8.232;2023-06-10T13:59:19;5.50;;;4.10;;
79464;SDS011;68932;47.410;8.232;2023-06-10T14:01:48;4.50;;;3.90;;
79464;SDS011;68932;47.410;8.232;2023-06-10T14:04:16;4.50;;;4.10;;
79464;SDS011;68932;47.410;8.232;2023-06-10T14:06:44;4.90;;;3.90;;
79464;SDS011;68932;47.410;8.232;2023-06-10T14:09:14;4.60;;;3.80;;
79464;SDS011;68932;47.410;8.232;2023-06-10T14:11:42;5.00;;;3.90;;
79464;SDS011;68932;47.410;8.232;2023-06-10T14:14:11;6.60;;;4.30;;
79464;SDS011;68932;47.410;8.232;2023-06-10T14:16:39;4.80;;;3.70;;
79464;SDS011;68932;47.410;8.232;2023-06-10T14:19:07;4.80;;;3.70;;
79464;SDS011;68932;47.410;8.232;2023-06-10T14:21:36;4.80;;;3.90;;
79464;SDS011;68932;47.410;8.232;2023-06-10T14:24:05;5.10;;;4.10;;
79464;SDS011;68932;47.410;8.232;2023-06-10T14:26:33;4.20;;;3.60;;
79464;SDS011;68932;47.410;8.232;2023-06-10T14:29:02;4.20;;;3.80;;
79464;SDS011;68932;47.410;8.232;2023-06-10T14:31:30;4.70;;;3.50;;
79464;SDS011;68932;47.410;8.232;2023-06-10T14:33:58;4.20;;;3.30;;
79464;SDS011;68932;47.410;8.232;2023-06-10T14:36:27;3.90;;;3.40;;
79464;SDS011;68932;47.410;8.232;2023-06-10T14:38:55;4.10;;;3.40;;
79464;SDS011;68932;47.410;8.232;2023-06-10T14:41:23;5.00;;;3.30;;
79464;SDS011;68932;47.410;8.232;2023-06-10T14:43:51;4.50;;;3.80;;
79464;SDS011;68932;47.410;8.232;2023-06-10T14:46:19;4.40;;;3.20;;
79464;SDS011;68932;47.410;8.232;2023-06-10T14:48:48;4.60;;;3.60;;
79464;SDS011;68932;47.410;8.232;2023-06-10T14:51:16;5.40;;;3.80;;
79464;SDS011;68932;47.410;8.232;2023-06-10T14:53:44;6.30;;;3.30;;
79464;SDS011;68932;47.410;8.232;2023-06-10T14:56:13;4.50;;;3.80;;
79464;SDS011;68932;47.410;8.232;2023-06-10T14:58:41;5.00;;;3.70;;
79464;SDS011;68932;47.410;8.232;2023-06-10T15:01:09;4.50;;;3.90;;
79464;SDS011;68932;47.410;8.232;2023-06-10T15:03:38;4.00;;;3.60;;
79464;SDS011;68932;47.410;8.232;2023-06-10T15:06:06;5.30;;;4.20;;
79464;SDS011;68932;47.410;8.232;2023-06-10T15:08:34;4.50;;;3.80;;
79464;SDS011;68932;47.410;8.232;2023-06-10T15:11:02;5.30;;;4.00;;